Time;durP1;ratioP1;P1;durP2;ratioP2;P2;SDS_P1;SDS_P2;PMS_P1;PMS_P2;Temp;Humidity;BMP_temperature;BMP_pressure;BME280_temperature;BME280_humidity;BME280_pressure;Samples;Min_cycle;Max_cycle;Signal;HPM_P1;HPM_P2
2023/09/15 00:01:13;;;;;;;2.40;2.22;;;;;;;;;;5027724;28;20025;-55
2023/09/15 00:03:39;;;;;;;7.03;2.72;;;;;;;;;;5024442;28;20481;-55
2023/09/15 00:06:05;;;;;;;3.00;2.58;;;;;;;;;;5029101;28;20022;-55
2023/09/15 00:08:30;;;;;;;3.15;2.47;;;;;;;;;;5024995;28;20482;-55
2023/09/15 00:10:56;;;;;;;2.53;2.33;;;;;;;;;;5009174;28;20029;-55
2023/09/15 00:13:21;;;;;;;3.28;2.80;;;;;;;;;;5024820;28;20036;-55
2023/09/15 00:15:50;;;;;;;4.13;2.70;;;;;;;;;;5025397;28;20014;-55
2023/09/15 00:18:16;;;;;;;4.38;2.97;;;;;;;;;;5024624;28;20022;-55
2023/09/15 00:20:41;;;;;;;3.80;2.80;;;;;;;;;;5026221;28;20425;-55
2023/09/15 00:23:07;;;;;;;2.95;2.75;;;;;;;;;;5026037;28;20033;-60
2023/09/15 00:25:32;;;;;;;3.28;2.65;;;;;;;;;;5024798;28;20049;-60
2023/09/15 00:27:59;;;;;;;3.78;2.58;;;;;;;;;;5026475;28;20029;-60
2023/09/15 00:30:25;;;;;;;3.08;2.83;;;;;;;;;;5026758;28;20484;-57
2023/09/15 00:32:51;;;;;;;2.85;2.65;;;;;;;;;;5026471;28;20081;-57
2023/09/15 00:35:18;;;;;;;3.13;2.78;;;;;;;;;;5024646;28;20034;-60
2023/09/15 00:37:45;;;;;;;3.22;2.92;;;;;;;;;;5025702;28;20040;-60
2023/09/15 00:40:11;;;;;;;3.72;2.53;;;;;;;;;;5023988;28;20084;-61
2023/09/15 00:42:41;;;;;;;3.10;2.88;;;;;;;;;;5026648;28;20010;-60
2023/09/15 00:45:09;;;;;;;5.57;2.45;;;;;;;;;;5025665;28;20022;-57
2023/09/15 00:47:34;;;;;;;4.63;2.67;;;;;;;;;;5026942;28;20432;-57
2023/09/15 00:50:05;;;;;;;3.00;2.75;;;;;;;;;;5024753;28;20033;-56
2023/09/15 00:52:33;;;;;;;2.80;2.60;;;;;;;;;;5024391;28;20112;-56
2023/09/15 00:54:59;;;;;;;2.78;2.58;;;;;;;;;;5006809;28;20025;-56
2023/09/15 00:57:25;;;;;;;2.60;2.40;;;;;;;;;;5024097;28;20063;-56
2023/09/15 00:59:50;;;;;;;2.53;2.38;;;;;;;;;;5024585;28;20414;-55
2023/09/15 01:02:17;;;;;;;3.10;2.53;;;;;;;;;;5026161;28;20374;-55
2023/09/15 01:04:42;;;;;;;3.63;2.63;;;;;;;;;;5006042;28;20052;-56
2023/09/15 01:07:08;;;;;;;3.97;2.92;;;;;;;;;;5025327;28;20022;-57
2023/09/15 01:09:33;;;;;;;2.85;2.67;;;;;;;;;;5026683;28;20469;-57
2023/09/15 01:11:59;;;;;;;4.10;2.92;;;;;;;;;;5023922;28;20018;-61
2023/09/15 01:14:25;;;;;;;2.92;2.72;;;;;;;;;;5024819;28;20033;-61
2023/09/15 01:16:58;;;;;;;3.28;3.03;;;;;;;;;;5007713;28;20014;-60
2023/09/15 01:19:42;;;;;;;6.28;3.05;;;;;;;;;;5024276;28;20106;-60
2023/09/15 01:22:26;;;;;;;4.15;3.00;;;;;;;;;;5024888;28;20482;-60
2023/09/15 01:25:12;;;;;;;3.30;3.03;;;;;;;;;;5025507;28;20018;-60
2023/09/15 01:27:46;;;;;;;5.72;2.88;;;;;;;;;;4989122;28;20148;-60
2023/09/15 01:30:12;;;;;;;5.00;3.05;;;;;;;;;;5025305;28;20026;-60
2023/09/15 01:32:38;;;;;;;4.53;3.38;;;;;;;;;;5023215;28;20076;-60
2023/09/15 01:35:06;;;;;;;3.92;3.40;;;;;;;;;;5006793;28;20069;-60
2023/09/15 01:37:32;;;;;;;5.30;3.33;;;;;;;;;;5007505;28;20124;-60
2023/09/15 01:39:59;;;;;;;4.22;3.50;;;;;;;;;;5023067;28;20054;-60
2023/09/15 01:42:25;;;;;;;3.47;3.22;;;;;;;;;;5026145;28;20068;-57
2023/09/15 01:44:50;;;;;;;5.70;4.10;;;;;;;;;;5023634;28;20492;-57
2023/09/15 01:47:19;;;;;;;4.25;3.45;;;;;;;;;;5025313;28;20029;-58
2023/09/15 01:49:45;;;;;;;4.78;3.15;;;;;;;;;;5006245;28;20022;-57
2023/09/15 01:52:11;;;;;;;3.63;3.35;;;;;;;;;;5023358;28;20470;-56
2023/09/15 01:54:37;;;;;;;3.42;2.63;;;;;;;;;;5022996;28;20458;-57
2023/09/15 01:57:03;;;;;;;4.45;2.92;;;;;;;;;;5006942;28;20025;-56
2023/09/15 01:59:28;;;;;;;3.90;2.90;;;;;;;;;;5024462;28;20048;-56
2023/09/15 02:01:54;;;;;;;3.13;2.90;;;;;;;;;;5005599;28;20075;-56
2023/09/15 02:04:19;;;;;;;2.97;2.78;;;;;;;;;;5025172;28;20381;-56
2023/09/15 02:06:45;;;;;;;3.28;2.80;;;;;;;;;;5022624;28;20026;-56
2023/09/15 02:09:13;;;;;;;3.08;2.70;;;;;;;;;;5022320;28;20480;-56
2023/09/15 02:11:39;;;;;;;3.22;2.67;;;;;;;;;;5022855;28;20080;-57
2023/09/15 02:14:05;;;;;;;3.50;2.85;;;;;;;;;;5024281;28;20030;-56
2023/09/15 02:16:31;;;;;;;5.03;2.60;;;;;;;;;;5006746;28;20057;-57
2023/09/15 02:18:57;;;;;;;4.05;2.55;;;;;;;;;;5004729;28;20508;-60
2023/09/15 02:21:23;;;;;;;3.28;2.45;;;;;;;;;;5006264;28;20033;-56
2023/09/15 02:23:48;;;;;;;2.85;2.50;;;;;;;;;;5006392;28;20028;-56
2023/09/15 02:26:13;;;;;;;6.32;2.78;;;;;;;;;;5022446;28;20026;-56
2023/09/15 02:28:39;;;;;;;3.50;3.20;;;;;;;;;;5022665;28;20465;-56
2023/09/15 02:31:05;;;;;;;3.63;3.22;;;;;;;;;;5006033;28;20025;-56
2023/09/15 02:33:30;;;;;;;3.63;3.17;;;;;;;;;;5007195;28;20040;-56
2023/09/15 02:35:55;;;;;;;4.30;2.95;;;;;;;;;;5007060;28;20137;-56
2023/09/15 02:38:21;;;;;;;3.47;3.17;;;;;;;;;;5022588;28;20030;-56
2023/09/15 02:40:46;;;;;;;4.28;2.95;;;;;;;;;;5005268;28;20025;-56
2023/09/15 02:43:11;;;;;;;3.20;2.88;;;;;;;;;;5024391;28;20013;-56
2023/09/15 02:45:37;;;;;;;3.13;2.85;;;;;;;;;;5006932;28;20049;-56
2023/09/15 02:48:05;;;;;;;4.15;3.40;;;;;;;;;;5004047;28;20485;-56
2023/09/15 02:50:31;;;;;;;3.53;3.33;;;;;;;;;;5004187;28;20441;-56
2023/09/15 02:52:56;;;;;;;3.60;3.30;;;;;;;;;;5004448;28;20037;-57
2023/09/15 02:55:22;;;;;;;5.10;4.05;;;;;;;;;;5006436;28;20052;-57
2023/09/15 02:57:54;;;;;;;4.30;3.75;;;;;;;;;;5005635;28;20116;-57
2023/09/15 03:00:20;;;;;;;3.55;3.30;;;;;;;;;;5006749;28;20021;-57
2023/09/15 03:02:46;;;;;;;4.53;3.67;;;;;;;;;;5005694;28;20022;-57
2023/09/15 03:05:13;;;;;;;3.70;3.40;;;;;;;;;;5004778;28;20103;-57
2023/09/15 03:07:39;;;;;;;4.43;3.35;;;;;;;;;;5004961;28;20057;-57
2023/09/15 03:10:07;;;;;;;5.10;2.95;;;;;;;;;;5005693;28;20030;-57
2023/09/15 03:12:33;;;;;;;4.03;3.45;;;;;;;;;;5004119;28;20048;-57
2023/09/15 03:14:59;;;;;;;3.83;3.25;;;;;;;;;;5024153;28;20381;-58
2023/09/15 03:17:24;;;;;;;5.93;3.40;;;;;;;;;;5003841;28;20026;-57
2023/09/15 03:19:50;;;;;;;3.58;3.20;;;;;;;;;;5005704;28;20393;-57
2023/09/15 03:22:16;;;;;;;3.53;3.22;;;;;;;;;;5004430;28;20022;-56
2023/09/15 03:24:45;;;;;;;3.30;2.95;;;;;;;;;;5006333;28;20540;-56
2023/09/15 03:27:10;;;;;;;3.92;3.50;;;;;;;;;;5023317;28;20014;-56
2023/09/15 03:29:36;;;;;;;3.50;3.17;;;;;;;;;;5006907;28;20029;-56
2023/09/15 03:32:02;;;;;;;5.05;3.05;;;;;;;;;;5022333;28;20010;-57
2023/09/15 03:34:28;;;;;;;3.88;3.58;;;;;;;;;;4998392;28;20026;-60
2023/09/15 03:36:54;;;;;;;3.50;3.20;;;;;;;;;;5021807;28;20495;-56
2023/09/15 03:39:19;;;;;;;4.43;4.03;;;;;;;;;;5022751;28;20030;-56
2023/09/15 03:41:47;;;;;;;5.07;4.50;;;;;;;;;;4999222;28;20512;-60
2023/09/15 03:44:12;;;;;;;5.57;5.07;;;;;;;;;;4995267;28;20037;-60
2023/09/15 03:46:39;;;;;;;7.18;5.05;;;;;;;;;;5012714;28;20097;-60
2023/09/15 03:49:05;;;;;;;6.05;5.47;;;;;;;;;;5012600;28;20026;-60
2023/09/15 03:51:31;;;;;;;5.90;5.30;;;;;;;;;;5014860;28;20088;-60
2023/09/15 03:53:56;;;;;;;5.50;5.10;;;;;;;;;;4997177;28;20116;-60
2023/09/15 03:56:23;;;;;;;5.28;4.88;;;;;;;;;;4997344;28;20040;-60
2023/09/15 03:58:49;;;;;;;6.30;5.70;;;;;;;;;;5014273;28;20030;-60
2023/09/15 04:01:19;;;;;;;6.03;5.25;;;;;;;;;;5013854;28;20030;-60
2023/09/15 04:03:45;;;;;;;6.15;5.47;;;;;;;;;;4997423;28;20366;-61
2023/09/15 04:06:10;;;;;;;6.70;5.60;;;;;;;;;;5015288;28;20033;-60
2023/09/15 04:08:36;;;;;;;5.93;5.30;;;;;;;;;;4998154;28;20032;-60
2023/09/15 04:11:02;;;;;;;5.43;5.03;;;;;;;;;;4998186;28;20030;-60
2023/09/15 04:13:27;;;;;;;5.72;5.18;;;;;;;;;;4997365;28;20030;-61
2023/09/15 04:15:56;;;;;;;7.60;5.38;;;;;;;;;;4997826;28;20034;-62
2023/09/15 04:18:22;;;;;;;6.40;5.10;;;;;;;;;;4981896;28;20037;-59
2023/09/15 04:20:49;;;;;;;6.00;5.43;;;;;;;;;;4997838;28;20069;-59
2023/09/15 04:23:15;;;;;;;7.18;5.00;;;;;;;;;;4998193;28;20030;-59
2023/09/15 04:25:42;;;;;;;8.10;5.55;;;;;;;;;;4998315;28;20485;-59
2023/09/15 04:28:07;;;;;;;5.95;5.45;;;;;;;;;;4998253;28;20030;-59
2023/09/15 04:30:33;;;;;;;5.68;5.10;;;;;;;;;;5015739;28;20045;-60
2023/09/15 04:32:59;;;;;;;5.22;4.85;;;;;;;;;;4998215;28;20018;-60
2023/09/15 04:35:25;;;;;;;5.78;4.93;;;;;;;;;;4998074;28;20033;-59
2023/09/15 04:37:51;;;;;;;5.70;5.20;;;;;;;;;;4981813;28;20100;-59
2023/09/15 04:40:16;;;;;;;5.40;4.90;;;;;;;;;;4998038;28;20026;-60
2023/09/15 04:42:46;;;;;;;4.93;4.53;;;;;;;;;;5015599;28;20421;-59
2023/09/15 04:45:12;;;;;;;5.32;4.82;;;;;;;;;;4998306;28;20036;-59
2023/09/15 04:47:38;;;;;;;4.97;4.40;;;;;;;;;;4997738;28;20100;-59
2023/09/15 04:50:19;;;;;;;5.18;4.65;;;;;;;;;;4997783;28;20043;-58
2023/09/15 04:52:46;;;;;;;4.78;4.40;;;;;;;;;;4997397;28;20069;-57
2023/09/15 04:55:11;;;;;;;4.80;4.38;;;;;;;;;;4997718;28;20050;-57
2023/09/15 04:57:37;;;;;;;5.05;4.47;;;;;;;;;;4997680;28;20029;-57
2023/09/15 05:00:12;;;;;;;4.78;4.38;;;;;;;;;;4997322;28;20041;-57
2023/09/15 05:02:45;;;;;;;4.68;4.22;;;;;;;;;;4997511;28;20042;-57
2023/09/15 05:05:14;;;;;;;4.63;4.30;;;;;;;;;;5014459;28;20065;-57
2023/09/15 05:07:41;;;;;;;4.13;3.65;;;;;;;;;;4996531;28;20066;-57
2023/09/15 05:10:08;;;;;;;4.50;4.10;;;;;;;;;;4996956;28;20175;-57
2023/09/15 05:12:34;;;;;;;4.85;4.20;;;;;;;;;;4996996;28;20120;-57
2023/09/15 05:14:59;;;;;;;4.10;3.80;;;;;;;;;;4981103;28;20112;-61
2023/09/15 05:17:26;;;;;;;4.50;4.10;;;;;;;;;;4997026;28;20168;-62
2023/09/15 05:19:53;;;;;;;4.20;3.88;;;;;;;;;;4996747;28;20131;-60
2023/09/15 05:22:19;;;;;;;3.90;3.60;;;;;;;;;;4997113;28;20104;-57
2023/09/15 05:24:45;;;;;;;4.18;3.78;;;;;;;;;;5022083;28;20076;-57
2023/09/15 05:27:10;;;;;;;3.95;3.65;;;;;;;;;;5015210;28;20543;-61
2023/09/15 05:29:36;;;;;;;3.95;3.65;;;;;;;;;;5034121;28;20373;-57
2023/09/15 05:32:02;;;;;;;4.63;3.70;;;;;;;;;;5018226;28;20038;-62
2023/09/15 05:34:27;;;;;;;4.13;3.70;;;;;;;;;;4994719;28;20030;-61
2023/09/15 05:36:54;;;;;;;3.70;3.40;;;;;;;;;;4995179;28;20044;-61
2023/09/15 05:39:19;;;;;;;3.90;3.60;;;;;;;;;;5013015;28;20482;-62
2023/09/15 05:41:44;;;;;;;4.65;3.70;;;;;;;;;;5012573;28;20113;-61
2023/09/15 05:44:10;;;;;;;4.07;3.78;;;;;;;;;;5013196;28;20026;-61
2023/09/15 05:46:35;;;;;;;4.00;3.60;;;;;;;;;;5013326;28;20030;-61
2023/09/15 05:49:01;;;;;;;3.58;3.28;;;;;;;;;;5014053;28;20037;-61
2023/09/15 05:51:26;;;;;;;3.95;3.05;;;;;;;;;;4996386;28;20034;-61
2023/09/15 05:53:52;;;;;;;4.32;3.15;;;;;;;;;;5014345;28;20045;-62
2023/09/15 05:56:17;;;;;;;5.47;3.90;;;;;;;;;;4996395;28;20034;-61
2023/09/15 05:58:43;;;;;;;3.67;3.38;;;;;;;;;;4996378;28;20036;-61
2023/09/15 06:01:08;;;;;;;3.95;3.45;;;;;;;;;;4996707;28;20041;-61
2023/09/15 06:03:33;;;;;;;3.80;3.50;;;;;;;;;;5033434;28;20034;-62
2023/09/15 06:05:59;;;;;;;4.43;3.67;;;;;;;;;;5033748;28;20033;-62
2023/09/15 06:08:24;;;;;;;3.88;3.40;;;;;;;;;;5026754;28;20104;-62
2023/09/15 06:10:49;;;;;;;4.50;3.53;;;;;;;;;;5014014;28;20121;-62
2023/09/15 06:13:15;;;;;;;3.72;3.28;;;;;;;;;;4996101;28;20030;-62
2023/09/15 06:15:40;;;;;;;4.22;3.30;;;;;;;;;;4995738;28;20068;-62
2023/09/15 06:18:06;;;;;;;3.83;3.53;;;;;;;;;;5013897;28;20069;-62
2023/09/15 06:20:33;;;;;;;5.93;3.22;;;;;;;;;;5013706;28;20045;-62
2023/09/15 06:22:58;;;;;;;3.90;3.40;;;;;;;;;;4996216;28;20033;-62
2023/09/15 06:25:24;;;;;;;4.75;3.42;;;;;;;;;;5013824;28;20358;-62
2023/09/15 06:27:49;;;;;;;3.90;3.40;;;;;;;;;;5013650;28;20036;-62
2023/09/15 06:30:15;;;;;;;5.50;2.63;;;;;;;;;;5013405;28;20045;-62
2023/09/15 06:32:40;;;;;;;3.08;2.85;;;;;;;;;;5003324;28;20021;-62
2023/09/15 06:35:06;;;;;;;2.85;2.65;;;;;;;;;;5033465;28;20033;-62
2023/09/15 06:37:31;;;;;;;5.90;3.00;;;;;;;;;;5033214;28;20428;-62
2023/09/15 06:39:57;;;;;;;3.33;2.97;;;;;;;;;;5015988;28;20051;-62
2023/09/15 06:42:22;;;;;;;4.25;3.00;;;;;;;;;;5033019;28;20103;-62
2023/09/15 06:44:48;;;;;;;6.60;3.00;;;;;;;;;;5033311;28;20030;-62
2023/09/15 06:47:13;;;;;;;4.35;3.90;;;;;;;;;;5033277;28;20033;-62
2023/09/15 06:49:38;;;;;;;2.90;2.70;;;;;;;;;;5033144;28;20033;-62
2023/09/15 06:52:04;;;;;;;4.35;3.95;;;;;;;;;;5032951;28;20060;-62
2023/09/15 06:54:30;;;;;;;3.00;2.80;;;;;;;;;;5033144;28;20500;-62
2023/09/15 06:56:55;;;;;;;2.53;2.33;;;;;;;;;;5033199;28;20030;-62
2023/09/15 06:59:21;;;;;;;2.33;1.98;;;;;;;;;;5032989;28;20033;-62
2023/09/15 07:01:47;;;;;;;4.18;2.25;;;;;;;;;;5033204;28;20036;-62
2023/09/15 07:04:13;;;;;;;3.88;2.30;;;;;;;;;;5033086;28;20030;-62
2023/09/15 07:06:39;;;;;;;2.92;2.40;;;;;;;;;;5032476;28;20084;-62
2023/09/15 07:09:04;;;;;;;2.10;1.98;;;;;;;;;;5032836;28;20473;-62
2023/09/15 07:11:30;;;;;;;2.17;1.98;;;;;;;;;;5015276;28;20037;-62
2023/09/15 07:13:55;;;;;;;2.70;2.10;;;;;;;;;;5016069;28;20117;-62
2023/09/15 07:16:20;;;;;;;2.75;2.50;;;;;;;;;;5013233;28;20030;-62
2023/09/15 07:18:46;;;;;;;2.65;2.45;;;;;;;;;;5013209;28;20066;-62
2023/09/15 07:21:11;;;;;;;3.45;2.58;;;;;;;;;;4995672;28;20049;-62
2023/09/15 07:23:37;;;;;;;5.38;2.78;;;;;;;;;;5013982;28;20045;-61
2023/09/15 07:26:02;;;;;;;2.83;2.63;;;;;;;;;;5015462;28;20041;-61
2023/09/15 07:28:27;;;;;;;2.80;2.60;;;;;;;;;;4999316;28;20014;-61
2023/09/15 07:31:01;;;;;;;3.50;3.20;;;;;;;;;;5016919;28;20045;-61
2023/09/15 07:33:26;;;;;;;2.75;2.53;;;;;;;;;;5016929;28;20036;-61
2023/09/15 07:35:57;;;;;;;4.32;2.75;;;;;;;;;;5016838;28;20390;-61
2023/09/15 07:38:22;;;;;;;;;;;;;;;;;;5017300;28;20040;-62
2023/09/15 07:40:47;;;;;;;2.60;2.40;;;;;;;;;;5015479;28;20280;-62
2023/09/15 07:43:13;;;;;;;2.50;2.10;;;;;;;;;;4982874;28;20076;-61
2023/09/15 07:45:39;;;;;;;4.30;2.90;;;;;;;;;;5022352;28;20026;-62
2023/09/15 07:48:04;;;;;;;2.83;2.40;;;;;;;;;;5033598;28;20112;-62
2023/09/15 07:50:33;;;;;;;4.22;2.45;;;;;;;;;;5036364;28;20060;-62
2023/09/15 07:52:58;;;;;;;5.82;2.42;;;;;;;;;;5002080;28;20037;-61
2023/09/15 07:55:24;;;;;;;2.50;2.30;;;;;;;;;;5029072;28;20386;-61
2023/09/15 07:57:49;;;;;;;4.38;2.15;;;;;;;;;;5015911;28;20038;-61
2023/09/15 08:00:15;;;;;;;2.53;2.03;;;;;;;;;;5018329;28;20017;-61
2023/09/15 08:02:40;;;;;;;2.15;1.95;;;;;;;;;;5016219;28;20428;-61
2023/09/15 08:05:06;;;;;;;2.40;2.20;;;;;;;;;;4998543;28;20077;-61
2023/09/15 08:07:31;;;;;;;2.55;2.35;;;;;;;;;;5016167;28;20088;-61
2023/09/15 08:09:57;;;;;;;2.88;2.67;;;;;;;;;;5016138;28;20071;-61
2023/09/15 08:12:23;;;;;;;2.50;2.40;;;;;;;;;;5016119;28;20030;-61
2023/09/15 08:14:49;;;;;;;2.33;2.10;;;;;;;;;;4998510;28;20026;-61
2023/09/15 08:17:15;;;;;;;3.17;2.08;;;;;;;;;;5015800;28;20064;-61
2023/09/15 08:19:41;;;;;;;2.28;2.08;;;;;;;;;;5015774;28;20046;-61
2023/09/15 08:22:06;;;;;;;2.10;2.00;;;;;;;;;;5015433;28;20033;-61
2023/09/15 08:24:31;;;;;;;2.60;2.20;;;;;;;;;;5017152;28;20080;-61
2023/09/15 08:26:57;;;;;;;2.40;2.20;;;;;;;;;;5032414;28;20597;-61
2023/09/15 08:29:22;;;;;;;3.33;1.88;;;;;;;;;;5035498;28;20092;-61
2023/09/15 08:31:48;;;;;;;2.92;1.77;;;;;;;;;;5035402;28;20064;-61
2023/09/15 08:34:13;;;;;;;2.65;1.95;;;;;;;;;;5035402;28;20116;-61
2023/09/15 08:36:38;;;;;;;2.35;2.05;;;;;;;;;;5034781;28;20036;-62
2023/09/15 08:39:05;;;;;;;2.67;2.10;;;;;;;;;;5034432;28;20041;-61
2023/09/15 08:41:40;;;;;;;3.08;2.00;;;;;;;;;;5034964;28;20024;-62
2023/09/15 08:44:16;;;;;;;2.50;2.30;;;;;;;;;;5034596;28;20385;-62
2023/09/15 08:46:43;;;;;;;2.30;2.10;;;;;;;;;;5034688;28;20080;-62
2023/09/15 08:49:09;;;;;;;2.78;1.90;;;;;;;;;;5035118;28;20030;-62
2023/09/15 08:51:34;;;;;;;1.92;1.70;;;;;;;;;;5035058;28;20124;-62
2023/09/15 08:54:01;;;;;;;1.80;1.70;;;;;;;;;;5034980;28;20034;-62
2023/09/15 08:56:27;;;;;;;2.47;1.73;;;;;;;;;;5031247;28;20013;-62
2023/09/15 08:58:53;;;;;;;2.10;1.83;;;;;;;;;;5034417;28;20026;-62
2023/09/15 09:01:19;;;;;;;2.08;1.90;;;;;;;;;;5034674;28;20499;-62
2023/09/15 09:03:44;;;;;;;2.17;1.98;;;;;;;;;;5017096;28;20029;-62
2023/09/15 09:06:11;;;;;;;1.77;1.67;;;;;;;;;;5034702;28;20017;-62
2023/09/15 09:08:40;;;;;;;1.60;1.50;;;;;;;;;;5016690;28;20091;-62
2023/09/15 09:11:06;;;;;;;2.00;1.90;;;;;;;;;;5034628;28;20045;-57
2023/09/15 09:13:33;;;;;;;3.33;2.17;;;;;;;;;;5017049;28;20488;-57
2023/09/15 09:15:59;;;;;;;2.30;2.10;;;;;;;;;;5034764;28;20041;-58
2023/09/15 09:18:26;;;;;;;2.10;1.90;;;;;;;;;;5034606;28;20049;-57
2023/09/15 09:20:51;;;;;;;4.07;1.80;;;;;;;;;;5016878;28;20049;-57
2023/09/15 09:23:18;;;;;;;2.30;2.10;;;;;;;;;;5034890;28;20453;-57
2023/09/15 09:25:43;;;;;;;3.00;1.95;;;;;;;;;;5034325;28;20104;-57
2023/09/15 09:28:09;;;;;;;2.15;1.95;;;;;;;;;;5034600;28;20063;-57
2023/09/15 09:30:34;;;;;;;1.98;1.88;;;;;;;;;;5034858;28;20034;-57
2023/09/15 09:33:00;;;;;;;2.10;1.92;;;;;;;;;;5034495;28;20064;-57
2023/09/15 09:35:26;;;;;;;3.03;2.72;;;;;;;;;;5016905;28;20057;-57
2023/09/15 09:37:55;;;;;;;1.60;1.50;;;;;;;;;;5034144;28;20041;-57
2023/09/15 09:40:21;;;;;;;1.75;1.50;;;;;;;;;;5016678;28;20125;-57
2023/09/15 09:42:47;;;;;;;1.95;1.85;;;;;;;;;;5034313;28;20028;-57
2023/09/15 09:45:14;;;;;;;1.90;1.80;;;;;;;;;;5016516;28;20108;-57
2023/09/15 09:47:39;;;;;;;2.10;2.00;;;;;;;;;;5034268;28;20400;-57
2023/09/15 09:50:06;;;;;;;2.17;1.98;;;;;;;;;;5033946;28;20034;-57
2023/09/15 09:52:32;;;;;;;1.63;1.52;;;;;;;;;;5034208;28;20094;-57
2023/09/15 09:55:00;;;;;;;2.33;1.90;;;;;;;;;;5034061;28;20537;-57
2023/09/15 09:57:26;;;;;;;2.08;1.88;;;;;;;;;;5034034;28;20029;-57
2023/09/15 09:59:52;;;;;;;2.03;1.70;;;;;;;;;;5033962;28;20029;-57
2023/09/15 10:02:17;;;;;;;4.45;1.90;;;;;;;;;;5034079;28;20024;-57
2023/09/15 10:04:43;;;;;;;1.83;1.73;;;;;;;;;;5033621;28;20029;-57
2023/09/15 10:07:08;;;;;;;4.55;1.83;;;;;;;;;;5032572;28;20454;-57
2023/09/15 10:09:34;;;;;;;4.32;2.08;;;;;;;;;;5016114;28;20033;-57
2023/09/15 10:12:01;;;;;;;1.80;1.70;;;;;;;;;;5033446;28;20493;-57
2023/09/15 10:14:27;;;;;;;1.58;1.45;;;;;;;;;;5015690;28;20060;-57
2023/09/15 10:16:52;;;;;;;1.60;1.23;;;;;;;;;;5033696;28;20026;-58
2023/09/15 10:19:18;;;;;;;1.60;1.50;;;;;;;;;;5033500;28;20033;-58
2023/09/15 10:21:44;;;;;;;1.95;1.60;;;;;;;;;;5028780;28;20029;-57
2023/09/15 10:24:10;;;;;;;1.50;1.40;;;;;;;;;;5033041;28;20377;-57
2023/09/15 10:26:41;;;;;;;1.90;1.48;;;;;;;;;;5030878;28;20427;-57
2023/09/15 10:29:07;;;;;;;1.70;1.60;;;;;;;;;;5012804;28;20543;-57
2023/09/15 10:31:33;;;;;;;3.05;1.60;;;;;;;;;;5030903;28;20061;-57
2023/09/15 10:34:04;;;;;;;5.32;1.98;;;;;;;;;;5031111;28;20049;-57
2023/09/15 10:36:29;;;;;;;;;;;;;;;;;;5031569;28;20033;-57
2023/09/15 10:38:57;;;;;;;6.38;2.38;;;;;;;;;;5032815;28;19917;-57
2023/09/15 10:41:29;;;;;;;1.80;1.70;;;;;;;;;;5033189;28;20105;-57
2023/09/15 10:43:55;;;;;;;1.50;1.40;;;;;;;;;;5031674;28;20087;-57
2023/09/15 10:46:20;;;;;;;2.03;1.80;;;;;;;;;;5031307;28;20033;-57
2023/09/15 10:48:46;;;;;;;1.85;1.55;;;;;;;;;;5032622;28;20098;-57
2023/09/15 10:51:12;;;;;;;2.10;1.67;;;;;;;;;;5032870;28;20038;-57
2023/09/15 10:53:43;;;;;;;2.10;1.90;;;;;;;;;;5033364;28;20029;-57
2023/09/15 10:56:08;;;;;;;2.00;1.80;;;;;;;;;;5015535;28;20048;-58
2023/09/15 10:58:34;;;;;;;2.42;1.50;;;;;;;;;;5033162;28;20034;-57
2023/09/15 11:01:00;;;;;;;3.55;1.58;;;;;;;;;;5034229;28;20026;-57
2023/09/15 11:03:26;;;;;;;2.00;1.90;;;;;;;;;;5036967;28;20033;-58
2023/09/15 11:05:52;;;;;;;1.83;1.40;;;;;;;;;;5036897;28;20025;-58
2023/09/15 11:08:18;;;;;;;3.92;1.80;;;;;;;;;;5035947;28;20040;-58
2023/09/15 11:10:43;;;;;;;2.08;1.98;;;;;;;;;;5017272;28;20034;-57
2023/09/15 11:13:09;;;;;;;3.92;2.00;;;;;;;;;;5034316;28;20108;-57
2023/09/15 11:15:35;;;;;;;1.77;1.67;;;;;;;;;;5034587;28;20037;-57
2023/09/15 11:18:01;;;;;;;1.75;1.65;;;;;;;;;;5034743;28;20532;-57
2023/09/15 11:20:26;;;;;;;2.10;1.70;;;;;;;;;;5034609;28;20096;-58
2023/09/15 11:22:55;;;;;;;3.30;1.75;;;;;;;;;;5036124;28;20033;-57
2023/09/15 11:25:21;;;;;;;2.17;1.98;;;;;;;;;;5036515;28;20087;-57
2023/09/15 11:27:47;;;;;;;3.08;1.85;;;;;;;;;;5036574;28;20025;-58
2023/09/15 11:30:13;;;;;;;1.67;1.58;;;;;;;;;;5019195;28;20060;-57
2023/09/15 11:32:38;;;;;;;2.97;1.77;;;;;;;;;;5036660;28;20081;-57
2023/09/15 11:35:05;;;;;;;3.03;2.63;;;;;;;;;;5036761;28;20044;-57
2023/09/15 11:37:31;;;;;;;3.42;1.80;;;;;;;;;;5036462;28;20033;-57
2023/09/15 11:39:56;;;;;;;3.60;2.00;;;;;;;;;;5036576;28;20040;-58
2023/09/15 11:42:22;;;;;;;2.30;2.00;;;;;;;;;;5036653;28;20021;-58
2023/09/15 11:44:47;;;;;;;2.67;1.83;;;;;;;;;;5036560;28;20037;-58
2023/09/15 11:47:13;;;;;;;1.75;1.63;;;;;;;;;;5036399;28;20032;-58
2023/09/15 11:49:40;;;;;;;2.05;1.52;;;;;;;;;;5036067;28;20018;-58
2023/09/15 11:52:06;;;;;;;1.50;1.40;;;;;;;;;;5036064;28;20041;-58
2023/09/15 11:54:31;;;;;;;2.13;1.92;;;;;;;;;;5035638;28;20087;-58
2023/09/15 11:56:57;;;;;;;1.80;1.70;;;;;;;;;;5034163;28;20020;-58
2023/09/15 11:59:23;;;;;;;1.70;1.60;;;;;;;;;;5035691;28;20033;-58
2023/09/15 12:01:52;;;;;;;2.50;1.88;;;;;;;;;;5035401;28;20469;-58
2023/09/15 12:04:18;;;;;;;1.87;1.60;;;;;;;;;;5035431;28;20057;-58
2023/09/15 12:06:45;;;;;;;1.67;1.58;;;;;;;;;;5035127;28;20087;-58
2023/09/15 12:09:12;;;;;;;2.17;1.77;;;;;;;;;;5035558;28;20036;-58
2023/09/15 12:11:41;;;;;;;3.28;1.70;;;;;;;;;;5034755;28;20033;-58
2023/09/15 12:14:07;;;;;;;1.88;1.77;;;;;;;;;;5035430;28;20061;-58
2023/09/15 12:16:33;;;;;;;2.33;1.60;;;;;;;;;;5035496;28;20087;-58
2023/09/15 12:18:59;;;;;;;1.98;1.50;;;;;;;;;;5017408;28;20091;-58
2023/09/15 12:21:24;;;;;;;2.95;1.90;;;;;;;;;;5035186;28;20493;-58
2023/09/15 12:23:54;;;;;;;2.97;1.92;;;;;;;;;;5035557;28;20063;-58
2023/09/15 12:26:20;;;;;;;2.37;1.33;;;;;;;;;;5017867;28;20091;-58
2023/09/15 12:28:46;;;;;;;1.83;1.55;;;;;;;;;;5035475;28;20030;-58
2023/09/15 12:31:15;;;;;;;1.95;1.58;;;;;;;;;;5035305;28;20010;-58
2023/09/15 12:33:42;;;;;;;1.10;0.85;;;;;;;;;;5035252;28;20045;-58
2023/09/15 12:36:10;;;;;;;4.07;1.80;;;;;;;;;;5035335;28;20120;-58
2023/09/15 12:38:35;;;;;;;2.10;1.90;;;;;;;;;;5035231;28;20092;-58
2023/09/15 12:41:01;;;;;;;1.40;1.30;;;;;;;;;;5035385;28;20021;-58
2023/09/15 12:43:26;;;;;;;2.15;1.50;;;;;;;;;;5026154;28;20088;-58
2023/09/15 12:45:53;;;;;;;1.88;1.75;;;;;;;;;;5028825;28;20026;-58
2023/09/15 12:48:18;;;;;;;1.70;1.58;;;;;;;;;;5034740;28;20022;-58
2023/09/15 12:50:44;;;;;;;2.05;1.95;;;;;;;;;;5032604;28;20040;-58
2023/09/15 12:53:09;;;;;;;1.88;1.58;;;;;;;;;;5033366;28;20112;-58
2023/09/15 12:55:35;;;;;;;3.40;2.20;;;;;;;;;;5034367;28;20026;-57
2023/09/15 12:58:00;;;;;;;2.15;1.92;;;;;;;;;;5017429;28;20029;-58
2023/09/15 13:00:26;;;;;;;4.45;1.90;;;;;;;;;;5015350;28;20034;-58
2023/09/15 13:02:51;;;;;;;2.95;2.05;;;;;;;;;;5014595;28;20026;-58
2023/09/15 13:05:16;;;;;;;2.17;2.00;;;;;;;;;;4997075;28;20033;-58
2023/09/15 13:07:43;;;;;;;1.65;1.55;;;;;;;;;;5014628;28;20025;-58
2023/09/15 13:10:10;;;;;;;1.90;1.80;;;;;;;;;;5014695;28;20125;-58
2023/09/15 13:12:36;;;;;;;2.17;1.73;;;;;;;;;;5014630;28;20043;-58
2023/09/15 13:15:03;;;;;;;2.03;1.60;;;;;;;;;;4981121;28;20053;-58
2023/09/15 13:17:28;;;;;;;4.28;1.70;;;;;;;;;;4997127;28;20034;-58
2023/09/15 13:19:55;;;;;;;2.78;1.80;;;;;;;;;;5022868;28;20041;-58
2023/09/15 13:22:22;;;;;;;3.55;1.77;;;;;;;;;;5034333;28;20104;-58
2023/09/15 13:24:47;;;;;;;1.73;1.60;;;;;;;;;;5033686;28;20017;-58
2023/09/15 13:27:12;;;;;;;1.60;1.50;;;;;;;;;;5033844;28;20404;-58
2023/09/15 13:29:38;;;;;;;3.97;1.88;;;;;;;;;;5033870;28;20033;-58
2023/09/15 13:32:04;;;;;;;1.80;1.65;;;;;;;;;;5033668;28;20068;-58
2023/09/15 13:34:29;;;;;;;2.65;1.80;;;;;;;;;;5033952;28;20053;-58
2023/09/15 13:36:56;;;;;;;2.10;1.90;;;;;;;;;;5033751;28;20392;-58
2023/09/15 13:39:22;;;;;;;2.45;1.88;;;;;;;;;;5033848;28;20045;-57
2023/09/15 13:41:47;;;;;;;2.08;1.92;;;;;;;;;;5016021;28;20044;-58
2023/09/15 13:44:12;;;;;;;1.67;1.55;;;;;;;;;;5033718;28;20021;-58
2023/09/15 13:46:38;;;;;;;2.22;1.73;;;;;;;;;;5016081;28;20043;-58
2023/09/15 13:49:05;;;;;;;2.03;1.80;;;;;;;;;;5033743;28;20416;-57
2023/09/15 13:51:31;;;;;;;2.55;1.60;;;;;;;;;;5033743;28;20052;-58
2023/09/15 13:53:56;;;;;;;2.35;1.52;;;;;;;;;;5033636;28;20473;-57
2023/09/15 13:56:22;;;;;;;1.90;1.80;;;;;;;;;;5033488;28;20439;-58
2023/09/15 13:58:48;;;;;;;2.10;1.63;;;;;;;;;;5033225;28;20079;-57
2023/09/15 14:01:20;;;;;;;5.70;1.88;;;;;;;;;;5033711;28;20022;-57
2023/09/15 14:03:46;;;;;;;2.75;1.80;;;;;;;;;;5033173;28;20025;-57
2023/09/15 14:06:12;;;;;;;1.80;1.70;;;;;;;;;;5033193;28;20025;-57
2023/09/15 14:08:44;;;;;;;2.28;2.10;;;;;;;;;;5032108;28;20037;-58
2023/09/15 14:11:13;;;;;;;1.90;1.80;;;;;;;;;;5033261;28;20064;-57
2023/09/15 14:13:44;;;;;;;1.90;1.80;;;;;;;;;;5000053;28;20037;-57
2023/09/15 14:16:13;;;;;;;1.70;1.60;;;;;;;;;;5033125;28;20030;-58
2023/09/15 14:18:38;;;;;;;2.22;1.85;;;;;;;;;;4998876;28;20136;-57
2023/09/15 14:21:07;;;;;;;1.70;1.60;;;;;;;;;;5014641;28;20045;-58
2023/09/15 14:23:43;;;;;;;2.00;1.90;;;;;;;;;;5033141;28;20025;-58
2023/09/15 14:26:10;;;;;;;3.80;2.08;;;;;;;;;;5033160;28;20072;-57
2023/09/15 14:28:36;;;;;;;1.70;1.60;;;;;;;;;;5015307;28;20049;-58
2023/09/15 14:31:10;;;;;;;3.05;1.85;;;;;;;;;;5031510;28;20501;-57
2023/09/15 14:33:36;;;;;;;1.90;1.80;;;;;;;;;;4998579;28;20059;-57
2023/09/15 14:36:02;;;;;;;2.70;1.80;;;;;;;;;;4997806;28;20079;-57
2023/09/15 14:38:38;;;;;;;2.05;1.88;;;;;;;;;;5031831;28;20057;-57